Charlo, MT (59824)

11:18 AM MDT on August 27, 2014 (GMT -0600)
KC7MRQ Station #1 | Change Station
CLOSE
Current Station
Personal Weather Station
Location: Ronan, MT
Elevation: 3070 ft
Nearby Weather Stations

Elev 3070 ft 47.53 °N, 114.09 °W | Updated 9 minutes ago

Clear
Clear
71.7 °F
Feels Like 77 °F
N
2.0
Wind Variable Wind from SSE
Gusts 4.0 mph

Today
High -- | Low -- °F
--% Chance of Precip.
Yesterday
High -- | Low -- °F
Precip. -- in
6:48 AM 8:26 PM
Waxing Crescent, 4% visible
Pressure 30.14 in
Visibility 10.0 miles
Clouds Clear
Heat Index 77 °F
Dew Point 55 °F
Humidity 55%
Rainfall 0.00 in
Snow Depth 0 in
UV 5 out of 12
Pollen 8.10 out of 12
Air Quality Not available.
Flu Activity Not available.
METAR KMSO 271653Z VRB04KT 10SM CLR 18/07 A3018 RMK AO2 SLP206 T01830072

More Conditions Fewer Conditions

Pressure 30.14 in
Visibility 10.0 miles
Clouds Clear
Heat Index 77 °F
Dew Point 55 °F
Humidity 55%
Rainfall 0.00 in
Snow Depth 0 in
UV 5 out of 12
Pollen 8.10 out of 12
Air Quality Not available.
Flu Activity Not available.
METAR KMSO 271653Z VRB04KT 10SM CLR 18/07 A3018 RMK AO2 SLP206 T01830072

More Conditions Fewer Conditions

10-Day Weather Forecast

Almanac

Astronomy

Aug. 27, 2014 Rise Set
Actual Time 6:48 AM MDT 8:26 PM MDT
Civil Twilight 6:16 AM MDT 8:58 PM MDT
Nautical Twilight 5:37 AM MDT 9:37 PM MDT
Astronomical Twilight 4:54 AM MDT 10:20 PM MDT
Moon 9:00 AM MDT 9:07 PM MDT
Length of Visible Light 14h 41m
Length of Day
13h 37m
Tomorrow will be 3m 15s shorter.
Waxing Crescent, 4% of the Moon is Illuminated
Today
Waxing Crescent
Sep 2
First Quarter
Sep 8
Full
Sep 15
Last Quarter
Sep 24
New

Today's Extremes

State Highs State Lows

Community

WunderPhotos

Upload Photos

1,747,728 photos uploaded!

Nearby

Snow Depth

Station Depth Elevation
Kraft Creek 0 in 4750 ft
Stuart Mountain 0 in 7400 ft
Wood Creek 1 in 5960 ft
Emery Creek 0 in 4350 ft
Waldron 2 in 5600 ft

Earthquake Activity

City Distance Mag. Time & Date
No recent earthquake activity has been reported nearby.
Minimum magnitude displayed is 2.5.

Coastal Water Temperatures

Place Temperature
No Stations Reporting

Nearby Weather Stations